Washington, Wisconsin
Current Conditions -  °F | °C
As of 3:55 AM on Sunday 23 Nov 2014 (Local Time) from KEGV Reporting Station
Drizzle Drizzle  
Wind Chill: 33°   Ceiling: 200
Heat Index: 38°   Visibility: 0.5mi
Dew Point: 38°   Wind: 7mph
Humidity: 100%   Direction: 160°SSE
Pressure: 29.53"   Gusts: NA
Location:  45.9065°N, 89.2784°W
Report Text: KEGV 230955Z AUTO 16006KT 1/2SM -DZ OVC002 04/04 A2953 RMK AO2 T00350035
Loading
Personal Weather Stations






























Interactive Weather Map New forecast layout! Learn more

10-Day Weather Forecast

Advertisements
Track Severe Weather on mobile